createdAt,value
2023-04-08T00:00:18.752Z,33.80
2023-04-08T00:03:41.771Z,34.80
2023-04-08T00:06:45.644Z,33.80
2023-04-08T00:09:48.804Z,33.50
2023-04-08T00:12:52.153Z,30.90
2023-04-08T00:15:55.406Z,35.30
2023-04-08T00:18:58.486Z,35.10
2023-04-08T00:22:02.159Z,37.60
2023-04-08T00:25:09.663Z,40.50
2023-04-08T00:28:16.348Z,39.10
2023-04-08T00:31:34.807Z,46.20
2023-04-08T00:34:38.642Z,40.50
2023-04-08T00:37:41.789Z,43.10
2023-04-08T00:40:45.134Z,43.40
2023-04-08T00:43:48.117Z,42.30
2023-04-08T00:46:51.264Z,45.40
2023-04-08T00:49:54.349Z,46.60
2023-04-08T00:52:57.474Z,46.30
2023-04-08T00:56:01.647Z,43.60
2023-04-08T00:59:05.686Z,47.50
2023-04-08T01:02:17.028Z,40.20
2023-04-08T01:06:10.063Z,46.70
2023-04-08T01:09:18.636Z,41.50
2023-04-08T01:12:44.163Z,44.00
2023-04-08T01:15:47.498Z,44.00
2023-04-08T01:18:53.478Z,46.00
2023-04-08T01:22:40.353Z,48.30
2023-04-08T01:25:51.852Z,45.50
2023-04-08T01:28:58.148Z,45.00
2023-04-08T01:32:03.075Z,45.70
2023-04-08T01:35:38.543Z,44.70
2023-04-08T01:38:52.811Z,41.10
2023-04-08T01:42:16.240Z,45.10
2023-04-08T01:45:41.971Z,41.20
2023-04-08T01:48:52.701Z,42.40
2023-04-08T01:51:59.924Z,37.90
2023-04-08T01:55:24.470Z,32.20
2023-04-08T01:58:50.691Z,38.90
2023-04-08T02:01:54.461Z,41.10
2023-04-08T02:04:58.694Z,40.90
2023-04-08T02:08:01.637Z,47.70
2023-04-08T02:11:04.917Z,41.60
2023-04-08T02:14:08.024Z,43.40
2023-04-08T02:17:25.061Z,46.80
2023-04-08T02:20:37.881Z,30.90
2023-04-08T02:23:44.000Z,46.90
2023-04-08T02:26:52.449Z,35.20
2023-04-08T02:29:58.770Z,47.60
2023-04-08T02:33:07.165Z,40.80
2023-04-08T02:36:12.661Z,44.60
2023-04-08T02:39:16.329Z,42.80
2023-04-08T02:42:19.498Z,44.60
2023-04-08T02:45:25.376Z,47.60
2023-04-08T02:48:29.103Z,47.80
2023-04-08T02:51:33.410Z,46.80
2023-04-08T02:54:44.771Z,46.60
2023-04-08T02:57:53.279Z,46.20
2023-04-08T03:00:56.660Z,44.40
2023-04-08T03:04:23.771Z,47.40
2023-04-08T03:08:26.704Z,44.40
2023-04-08T03:11:53.279Z,46.70
2023-04-08T03:15:24.447Z,44.40
2023-04-08T03:19:27.250Z,43.40
2023-04-08T03:22:34.437Z,39.60
2023-04-08T03:25:58.825Z,37.60
2023-04-08T03:29:24.471Z,36.10
2023-04-08T03:32:33.837Z,36.90
2023-04-08T03:35:37.781Z,37.80
2023-04-08T03:38:40.998Z,39.50
2023-04-08T03:41:44.647Z,42.20
2023-04-08T03:44:47.862Z,46.20
2023-04-08T03:47:51.055Z,42.40
2023-04-08T03:50:54.304Z,32.50
2023-04-08T03:53:57.402Z,36.90
2023-04-08T03:57:01.063Z,32.80
2023-04-08T04:00:06.013Z,37.80
2023-04-08T04:03:11.582Z,12.90
2023-04-08T04:06:14.714Z,17.40
2023-04-08T04:09:18.498Z,42.30
2023-04-08T04:12:21.836Z,29.40
2023-04-08T04:15:25.096Z,37.60
2023-04-08T04:18:28.658Z,15.10
2023-04-08T04:21:33.049Z,16.80
2023-04-08T04:24:36.086Z,19.70
2023-04-08T04:27:39.166Z,43.50
2023-04-08T04:30:42.206Z,45.80
2023-04-08T04:33:45.266Z,40.40
2023-04-08T04:36:49.093Z,25.40
2023-04-08T04:39:52.094Z,22.80
2023-04-08T04:42:55.639Z,39.80
2023-04-08T04:45:59.524Z,37.90
2023-04-08T04:49:02.672Z,45.40
2023-04-08T04:52:06.701Z,45.60
2023-04-08T04:55:10.461Z,46.50
2023-04-08T04:58:13.766Z,42.70
2023-04-08T05:01:16.721Z,44.50
2023-04-08T05:04:19.808Z,43.70
2023-04-08T05:07:22.876Z,39.60
2023-04-08T05:10:26.166Z,45.60
2023-04-08T05:13:30.179Z,43.20
2023-04-08T05:16:34.094Z,42.00
2023-04-08T05:19:37.164Z,41.80
2023-04-08T05:22:40.583Z,47.60
2023-04-08T05:25:44.691Z,44.30
2023-04-08T05:28:49.055Z,45.60
2023-04-08T05:31:52.706Z,46.40
2023-04-08T05:34:58.053Z,45.30
2023-04-08T05:38:43.776Z,44.40
2023-04-08T05:42:10.182Z,44.60
2023-04-08T05:45:35.129Z,42.90
2023-04-08T05:48:38.241Z,41.40
2023-04-08T05:51:41.273Z,48.00
2023-04-08T05:54:44.667Z,42.40
2023-04-08T05:57:47.696Z,45.20
2023-04-08T06:00:50.717Z,42.40
2023-04-08T06:03:57.069Z,37.50
2023-04-08T06:07:54.853Z,43.60
2023-04-08T06:12:20.822Z,44.80
2023-04-08T06:29:51.468Z,56.40
2023-04-08T06:33:01.453Z,75.90
2023-04-08T06:36:07.640Z,56.10
2023-04-08T06:39:13.055Z,42.50
2023-04-08T06:42:16.433Z,93.90
2023-04-08T06:45:20.583Z,57.60
2023-04-08T06:48:28.819Z,64.40
2023-04-08T06:51:32.747Z,47.30
2023-04-08T06:54:36.443Z,41.60
2023-04-08T06:57:39.993Z,38.00
2023-04-08T07:00:45.468Z,35.90
2023-04-08T07:03:49.537Z,28.00
2023-04-08T07:10:02.746Z,32.30
2023-04-08T07:13:05.977Z,33.50
2023-04-08T07:16:09.397Z,36.00
2023-04-08T07:19:15.964Z,33.10
2023-04-08T07:22:19.307Z,31.30
2023-04-08T07:25:25.174Z,31.50
2023-04-08T07:28:30.065Z,32.90
2023-04-08T07:31:33.744Z,32.30
2023-04-08T07:34:39.127Z,32.00
2023-04-08T07:37:42.321Z,23.20
2023-04-08T07:40:45.427Z,36.90
2023-04-08T07:43:50.969Z,30.10
2023-04-08T07:46:54.367Z,31.00
2023-04-08T07:49:57.513Z,32.90
2023-04-08T07:53:00.848Z,34.00
2023-04-08T07:56:07.005Z,33.20
2023-04-08T07:59:13.394Z,33.50
2023-04-08T08:02:16.958Z,32.60
2023-04-08T08:05:20.832Z,32.90
2023-04-08T08:08:24.150Z,31.50
2023-04-08T08:11:33.872Z,32.00
2023-04-08T08:14:39.090Z,30.00
2023-04-08T08:17:44.606Z,31.10
2023-04-08T08:20:51.922Z,30.10
2023-04-08T08:23:57.733Z,31.00
2023-04-08T08:27:01.568Z,29.50
2023-04-08T08:30:09.547Z,33.80
2023-04-08T08:33:14.036Z,34.10
2023-04-08T08:36:19.028Z,29.60
2023-04-08T08:39:24.979Z,27.50
2023-04-08T08:42:29.097Z,29.40
2023-04-08T08:45:41.234Z,29.60
2023-04-08T08:48:44.915Z,20.40
2023-04-08T08:51:49.527Z,30.90
2023-04-08T08:54:59.976Z,31.90
2023-04-08T08:58:03.253Z,28.80
2023-04-08T09:01:32.835Z,30.40
2023-04-08T09:04:38.200Z,31.00
2023-04-08T09:07:41.550Z,26.80
2023-04-08T09:10:44.600Z,28.30
2023-04-08T09:13:48.345Z,28.10
2023-04-08T09:16:53.073Z,28.10
2023-04-08T09:20:12.369Z,28.90
2023-04-08T09:23:15.548Z,28.10
2023-04-08T09:26:24.366Z,28.40
2023-04-08T09:29:31.063Z,29.90
2023-04-08T09:32:57.633Z,26.20
2023-04-08T09:36:00.709Z,27.50
2023-04-08T09:39:03.873Z,26.60
2023-04-08T09:42:12.043Z,29.10
2023-04-08T09:45:16.326Z,22.90
2023-04-08T09:48:25.069Z,25.90
2023-04-08T09:51:33.375Z,25.40
2023-04-08T09:54:52.972Z,22.70
2023-04-08T09:58:02.262Z,18.40
2023-04-08T10:01:07.276Z,21.40
2023-04-08T10:04:14.826Z,16.50
2023-04-08T10:07:19.343Z,19.90
2023-04-08T10:10:22.839Z,22.00
2023-04-08T10:13:28.468Z,20.30
2023-04-08T10:16:31.919Z,19.70
2023-04-08T10:19:43.237Z,20.20
2023-04-08T10:22:48.343Z,19.80
2023-04-08T10:25:51.447Z,18.50
2023-04-08T10:28:54.378Z,22.90
2023-04-08T10:31:58.078Z,17.40
2023-04-08T10:35:01.015Z,19.30
2023-04-08T10:38:04.137Z,18.40
2023-04-08T10:41:07.181Z,16.90
2023-04-08T10:44:24.013Z,17.00
2023-04-08T10:47:28.727Z,21.40
2023-04-08T10:50:32.539Z,17.00
2023-04-08T10:53:38.115Z,15.80
2023-04-08T10:56:45.837Z,14.00
2023-04-08T10:59:49.474Z,15.80
2023-04-08T11:02:53.378Z,13.80
2023-04-08T11:05:58.790Z,9.90
2023-04-08T11:09:35.268Z,17.40
2023-04-08T11:13:53.394Z,11.50
2023-04-08T11:17:59.262Z,11.60
2023-04-08T11:22:04.078Z,9.70
2023-04-08T11:25:54.582Z,11.20
2023-04-08T11:29:26.007Z,14.80
2023-04-08T11:32:42.919Z,14.20
2023-04-08T11:36:24.497Z,8.60
2023-04-08T11:40:56.119Z,7.30
2023-04-08T11:45:31.166Z,10.50
2023-04-08T11:49:30.477Z,9.70
2023-04-08T11:53:49.216Z,10.80
2023-04-08T11:57:34.120Z,11.00
2023-04-08T12:01:37.905Z,10.10
2023-04-08T12:05:06.728Z,11.70
2023-04-08T12:09:39.956Z,10.50
2023-04-08T12:13:09.089Z,11.90
2023-04-08T12:16:26.842Z,9.00
2023-04-08T12:20:15.088Z,11.10
2023-04-08T12:24:04.694Z,13.20
2023-04-08T12:28:22.005Z,13.40
2023-04-08T12:32:15.759Z,18.10
2023-04-08T12:35:39.860Z,13.40
2023-04-08T12:39:57.270Z,13.40
2023-04-08T12:44:09.477Z,11.90
2023-04-08T12:47:55.632Z,11.20
2023-04-08T12:51:43.321Z,15.30
2023-04-08T12:55:05.556Z,13.80
2023-04-08T12:58:52.416Z,10.50
2023-04-08T13:02:10.013Z,9.40
2023-04-08T13:09:33.973Z,14.80
2023-04-08T13:13:41.464Z,12.20
2023-04-08T13:17:24.632Z,12.30
2023-04-08T13:21:21.859Z,12.40
2023-04-08T13:24:53.112Z,14.00
2023-04-08T13:29:00.292Z,14.80
2023-04-08T13:32:51.698Z,15.10
2023-04-08T13:36:56.750Z,14.30
2023-04-08T13:41:19.198Z,15.60
2023-04-08T13:45:26.437Z,15.20
2023-04-08T13:49:38.407Z,15.60
2023-04-08T13:53:10.170Z,15.80
2023-04-08T13:56:53.766Z,15.40
2023-04-08T14:00:57.807Z,15.70
2023-04-08T14:05:10.934Z,18.20
2023-04-08T14:09:35.475Z,17.40
2023-04-08T14:20:06.281Z,15.90
2023-04-08T14:24:10.441Z,16.00
2023-04-08T14:28:08.334Z,16.90
2023-04-08T14:32:15.227Z,18.50
2023-04-08T14:36:38.610Z,18.20
2023-04-08T14:40:23.354Z,19.10
2023-04-08T14:44:15.018Z,28.00
2023-04-08T14:48:35.370Z,23.50
2023-04-08T14:52:59.042Z,22.20
2023-04-08T14:57:26.853Z,20.80
2023-04-08T15:01:43.639Z,16.50
2023-04-08T15:05:11.485Z,21.70
2023-04-08T15:09:20.496Z,21.30
2023-04-08T15:13:32.660Z,23.30
2023-04-08T15:18:01.272Z,18.60
2023-04-08T15:22:30.001Z,23.30
2023-04-08T15:26:51.006Z,21.90
2023-04-08T15:31:30.348Z,24.70
2023-04-08T15:35:33.340Z,24.30
2023-04-08T15:39:41.141Z,23.60
2023-04-08T15:43:57.559Z,27.70
2023-04-08T15:48:02.379Z,24.70
2023-04-08T15:52:10.021Z,26.80
2023-04-08T15:56:55.633Z,26.50
2023-04-08T16:01:03.533Z,27.70
2023-04-08T16:05:31.534Z,18.40
2023-04-08T16:09:55.996Z,25.70
2023-04-08T16:14:29.042Z,24.50
2023-04-08T16:18:57.347Z,21.90
2023-04-08T16:23:28.804Z,28.30
2023-04-08T16:27:34.379Z,27.00
2023-04-08T16:32:06.134Z,23.90
2023-04-08T16:36:19.743Z,30.80
2023-04-08T16:40:23.698Z,26.50
2023-04-08T16:44:55.589Z,25.80
2023-04-08T16:49:26.896Z,33.20
2023-04-08T16:53:52.821Z,36.40
2023-04-08T16:58:32.624Z,31.00
2023-04-08T17:02:57.957Z,40.70
2023-04-08T17:06:55.727Z,25.30
2023-04-08T17:11:46.035Z,31.30
2023-04-08T17:16:30.325Z,29.30
2023-04-08T17:20:53.563Z,23.30
2023-04-08T17:25:26.554Z,26.80
2023-04-08T17:30:06.140Z,25.20
2023-04-08T17:34:15.149Z,28.30
2023-04-08T17:38:54.574Z,29.60
2023-04-08T17:43:19.716Z,32.50
2023-04-08T17:48:04.245Z,34.80
2023-04-08T17:52:14.301Z,36.80
2023-04-08T17:56:19.908Z,34.60
2023-04-08T18:00:39.352Z,35.40
2023-04-08T18:05:08.585Z,33.50
2023-04-08T18:09:02.274Z,30.00
2023-04-08T18:13:11.375Z,24.00
2023-04-08T18:17:40.197Z,34.50
2023-04-08T18:22:14.377Z,36.60
2023-04-08T18:26:43.869Z,32.60
2023-04-08T18:31:02.059Z,35.50
2023-04-08T18:35:20.345Z,34.70
2023-04-08T18:40:06.565Z,35.50
2023-04-08T18:44:39.680Z,34.70
2023-04-08T18:49:24.554Z,35.50
2023-04-08T18:53:38.796Z,36.80
2023-04-08T19:02:44.733Z,38.00
2023-04-08T19:07:08.742Z,36.50
2023-04-08T19:11:53.453Z,43.60
2023-04-08T19:16:18.681Z,36.60
2023-04-08T19:20:47.996Z,78.30
2023-04-08T19:25:11.980Z,42.60
2023-04-08T19:29:20.472Z,43.70
2023-04-08T19:33:34.029Z,64.00
2023-04-08T19:38:22.001Z,48.00
2023-04-08T19:43:21.856Z,67.50
2023-04-08T19:47:46.453Z,47.40
2023-04-08T19:52:00.193Z,48.70
2023-04-08T19:56:44.117Z,48.50
2023-04-08T20:01:28.035Z,45.40
2023-04-08T20:05:21.587Z,45.00
2023-04-08T20:10:00.732Z,45.90
2023-04-08T20:14:32.575Z,41.20
2023-04-08T20:19:00.860Z,45.60
2023-04-08T20:23:32.647Z,43.10
2023-04-08T20:27:58.964Z,40.00
2023-04-08T20:32:03.251Z,42.50
2023-04-08T20:39:38.545Z,38.60
2023-04-08T20:44:17.688Z,42.80
2023-04-08T20:48:42.537Z,49.50
2023-04-08T20:53:07.470Z,43.40
2023-04-08T20:57:40.403Z,33.80
2023-04-08T21:02:24.709Z,33.80
2023-04-08T21:06:42.918Z,31.10
2023-04-08T21:11:27.607Z,38.50
2023-04-08T21:15:57.242Z,30.80
2023-04-08T21:20:10.471Z,36.70
2023-04-08T21:24:34.834Z,32.50
2023-04-08T21:29:00.842Z,25.00
2023-04-08T21:33:28.704Z,48.60
2023-04-08T21:40:51.063Z,46.80
2023-04-08T21:45:31.277Z,46.40
2023-04-08T21:50:15.823Z,48.60
2023-04-08T21:54:55.948Z,49.50
2023-04-08T21:59:20.095Z,37.50
2023-04-08T22:04:04.509Z,38.10
2023-04-08T22:08:30.918Z,51.20
2023-04-08T22:13:02.608Z,55.20
2023-04-08T22:17:22.624Z,51.50
2023-04-08T22:21:27.941Z,55.90
2023-04-08T22:25:44.875Z,55.00
2023-04-08T22:29:58.204Z,52.20
2023-04-08T22:34:12.612Z,55.60
2023-04-08T22:38:19.861Z,49.10
2023-04-08T22:42:36.646Z,55.50
2023-04-08T22:47:09.541Z,48.40
2023-04-08T22:51:52.267Z,41.10
2023-04-08T22:56:30.859Z,49.70
2023-04-08T23:01:15.511Z,53.70
2023-04-08T23:05:28.254Z,55.10
2023-04-08T23:09:54.537Z,53.30
2023-04-08T23:14:39.029Z,53.60
2023-04-08T23:19:02.884Z,54.80
2023-04-08T23:23:31.345Z,51.60
2023-04-08T23:27:59.223Z,50.00
2023-04-08T23:32:23.464Z,55.30
2023-04-08T23:36:35.496Z,51.40
2023-04-08T23:40:55.798Z,49.50
2023-04-08T23:45:39.992Z,47.30
2023-04-08T23:50:23.800Z,47.10
2023-04-08T23:54:32.187Z,46.30
2023-04-08T23:59:16.641Z,42.70
